LFBL/LIG METAR and TAF weather

Enter ICAO airport designator
Station Type Date Time Source
LFBL METAR 2022/01/29 14:00 UTC NOAA

LFBL 291400Z AUTO 05005KT 9999 OVC002 04/04 Q1035 TEMPO VV///


Station Type Date Time Source
LFBL Decoded METAR 2022/01/29 14:00 UTC NOAA

Limoges, France (LFBL) 45-52N 001-11E 402M
Jan 29, 2022 - 09:00 AM EST / 2022.01.29 1400 UTC
Wind: from the NE (050 degrees) at 6 MPH (5 KT):0
Visibility: greater than 7 mile(s):0
Sky conditions: overcast
Temperature: 39 F (4 C)
Dew Point: 39 F (4 C)
Relative Humidity: 100%
Pressure (altimeter): 30.56 in. Hg (1035 hPa)
ob: LFBL 291400Z AUTO 05005KT 9999 OVC002 04/04 Q1035 TEMPO VV///
cycle: 14

Station Type Date Time Source
LFBL TAF 2022/01/29 12:30 UTC NOAA

TAF
AMD LFBL 291221Z 2912/3012 VRB03KT 3000 BR OVC002
TEMPO 2912/2917 8000 NSW
BECMG 2917/2919 0600 FG VV///
TEMPO 2922/3008 0300
BECMG 3009/3011 3000 BR OVC003

Example: see airport list